Time;durP1;ratioP1;P1;durP2;ratioP2;P2;SDS_P1;SDS_P2;PMS_P1;PMS_P2;Temp;Humidity;BMP_temperature;BMP_pressure;BME280_temperature;BME280_humidity;BME280_pressure;Samples;Min_cycle;Max_cycle;Signal;HPM_P1;HPM_P2
2022/06/03 00:02:37;;;;;;;13.18;9.43;;;;;;;8.86;91.92;98714.24;1777973;79;22058;-86
2022/06/03 00:05:45;;;;;;;9.53;7.53;;;;;;;8.80;92.00;98713.07;1779297;80;21032;-86
2022/06/03 00:09:00;;;;;;;13.08;8.73;;;;;;;8.73;91.93;98712.75;1779084;79;21059;-87
2022/06/03 00:11:58;;;;;;;11.93;8.30;;;;;;;8.66;91.79;98714.81;1772610;80;21075;-85
2022/06/03 00:14:58;;;;;;;15.23;8.40;;;;;;;8.63;91.86;98719.38;1779254;80;21025;-86
2022/06/03 00:18:21;;;;;;;12.65;8.33;;;;;;;8.62;92.54;98709.61;1740340;80;21016;-86
2022/06/03 00:21:05;;;;;;;11.78;8.93;;;;;;;8.58;92.25;98716.59;1774998;80;21504;-84
2022/06/03 00:23:45;;;;;;;12.88;8.80;;;;;;;8.52;90.21;98708.13;1779126;79;20992;-83
2022/06/03 00:26:28;;;;;;;12.75;9.28;;;;;;;8.45;90.74;98711.00;1778558;80;21407;-84
2022/06/03 00:29:18;;;;;;;12.15;8.95;;;;;;;8.41;91.32;98714.46;1769645;80;21015;-83
2022/06/03 00:32:22;;;;;;;12.95;8.35;;;;;;;8.39;91.39;98712.55;1751220;80;21148;-86
2022/06/03 00:35:15;;;;;;;12.03;8.70;;;;;;;8.31;91.24;98716.45;1756728;80;21045;-86
2022/06/03 00:38:36;;;;;;;13.65;8.85;;;;;;;8.26;91.94;98712.86;1771582;80;20973;-86
2022/06/03 00:41:31;;;;;;;12.18;8.63;;;;;;;8.22;91.46;98710.38;1744290;80;21496;-87
2022/06/03 00:44:20;;;;;;;10.85;8.28;;;;;;;8.16;90.64;98705.42;1750136;80;21474;-84
2022/06/03 00:47:09;;;;;;;12.43;8.68;;;;;;;8.15;90.34;98708.66;1778698;79;21178;-86
2022/06/03 00:50:19;;;;;;;11.00;7.97;;;;;;;8.12;90.94;98711.05;1769819;79;21068;-86
2022/06/03 00:53:08;;;;;;;9.45;7.00;;;;;;;8.04;91.53;98702.83;1778999;80;21009;-86
2022/06/03 00:55:42;;;;;;;10.45;7.70;;;;;;;7.97;89.73;98712.97;1779248;80;20969;-86
2022/06/03 00:58:28;;;;;;;9.78;8.18;;;;;;;7.91;88.45;98711.24;1764018;81;21545;-87
2022/06/03 01:01:27;;;;;;;10.65;8.03;;;;;;;7.85;90.89;98703.59;1762428;80;22011;-86
2022/06/03 01:04:26;;;;;;;;;;;;;;;7.83;90.77;98711.65;1736378;80;20971;-86
2022/06/03 01:07:20;;;;;;;9.73;7.65;;;;;;;7.79;91.03;98710.52;1774190;79;20196;-84
2022/06/03 01:09:54;;;;;;;14.43;8.38;;;;;;;7.75;90.04;98713.41;1767340;80;20989;-86
2022/06/03 01:13:03;;;;;;;11.95;7.85;;;;;;;7.70;88.50;98714.69;1714050;80;21025;-86
2022/06/03 01:15:56;;;;;;;9.40;7.65;;;;;;;7.63;89.34;98710.78;1756272;80;21430;-86
2022/06/03 01:18:30;;;;;;;14.63;7.62;;;;;;;7.67;89.31;98719.20;1745764;80;20970;-87
2022/06/03 01:21:11;;;;;;;10.78;7.50;;;;;;;7.69;90.63;98720.61;1771023;80;21607;-84
2022/06/03 01:24:20;;;;;;;8.35;6.92;;;;;;;7.71;93.01;98721.17;1765664;80;21499;-86
2022/06/03 01:27:03;;;;;;;11.08;8.05;;;;;;;7.68;92.97;98715.44;1767077;80;21577;-86
2022/06/03 01:29:58;;;;;;;10.43;7.95;;;;;;;7.62;93.41;98718.06;1773184;80;21133;-84
2022/06/03 01:33:02;;;;;;;12.88;8.63;;;;;;;7.59;92.40;98715.83;1775415;80;21025;-87
2022/06/03 01:35:56;;;;;;;9.58;7.12;;;;;;;7.52;93.63;98717.05;1779094;80;21552;-84
2022/06/03 01:39:05;;;;;;;9.60;6.87;;;;;;;7.47;90.11;98719.14;1779188;79;21437;-87
2022/06/03 01:42:00;;;;;;;10.15;7.72;;;;;;;7.35;91.25;98720.55;1769046;80;21503;-87
2022/06/03 01:44:44;;;;;;;14.55;9.08;;;;;;;7.32;94.13;98717.50;1765462;80;21070;-87
2022/06/03 01:47:34;;;;;;;10.70;7.90;;;;;;;7.38;94.20;98725.17;1773035;79;20960;-86
2022/06/03 01:50:25;;;;;;;11.20;7.75;;;;;;;7.35;93.89;98723.78;1765611;80;21458;-86
2022/06/03 01:53:31;;;;;;;10.90;7.33;;;;;;;7.27;94.37;98724.98;1771570;80;20973;-86
2022/06/03 01:56:37;;;;;;;13.10;7.03;;;;;;;7.23;94.66;98725.69;1748771;80;21061;-84
2022/06/03 01:59:45;;;;;;;10.32;7.85;;;;;;;7.17;94.88;98729.34;1779294;80;21454;-87
2022/06/03 02:02:32;;;;;;;9.43;7.12;;;;;;;7.13;95.27;98724.97;1779159;80;21088;-86
2022/06/03 02:05:46;;;;;;;11.43;7.25;;;;;;;7.11;95.45;98724.41;1779371;80;20996;-86
2022/06/03 02:08:53;;;;;;;9.98;6.80;;;;;;;7.12;92.98;98730.61;1779186;79;21421;-83
2022/06/03 02:12:16;;;;;;;16.15;8.03;;;;;;;7.10;93.69;98730.03;1762472;80;21064;-84
2022/06/03 02:15:06;;;;;;;10.45;7.05;;;;;;;7.07;94.46;98732.12;1779580;80;21528;-86
2022/06/03 02:18:05;;;;;;;11.63;7.92;;;;;;;7.07;94.41;98737.52;1728577;80;20983;-86
2022/06/03 02:21:23;;;;;;;12.05;8.98;;;;;;;7.04;93.80;98733.97;1773330;80;21119;-83
2022/06/03 02:24:42;;;;;;;11.57;9.23;;;;;;;7.02;93.27;98748.74;1740341;80;21447;-83
2022/06/03 02:27:46;;;;;;;11.73;7.08;;;;;;;6.95;95.09;98744.83;1780758;79;20988;-86
2022/06/03 02:30:45;;;;;;;8.40;6.47;;;;;;;6.96;95.09;98745.12;1779088;80;21117;-83
2022/06/03 02:33:41;;;;;;;;;;;;;;;6.96;91.91;98745.65;1781738;79;20973;-86
2022/06/03 02:36:27;;;;;;;8.40;6.62;;;;;;;6.89;93.69;98749.81;1779434;80;20322;-86
2022/06/03 02:39:15;;;;;;;13.43;7.65;;;;;;;6.87;92.64;98750.59;1779352;80;21064;-82
2022/06/03 02:42:11;;;;;;;9.03;6.75;;;;;;;6.85;93.14;98748.67;1773279;80;21028;-86
2022/06/03 02:44:51;;;;;;;8.48;7.20;;;;;;;6.82;92.73;98753.70;1770464;80;21703;-83
2022/06/03 02:47:42;;;;;;;8.58;6.87;;;;;;;6.76;92.80;98751.44;1779106;79;21436;-86
2022/06/03 02:50:29;;;;;;;9.88;7.62;;;;;;;6.71;93.29;98752.67;1779429;80;20993;-85
2022/06/03 02:53:34;;;;;;;9.18;7.62;;;;;;;6.66;93.46;98746.63;1760437;80;21071;-86
2022/06/03 02:56:36;;;;;;;7.92;6.83;;;;;;;6.67;93.00;98746.95;1763114;80;21063;-84
2022/06/03 02:59:44;;;;;;;9.10;6.33;;;;;;;6.70;92.78;98748.34;1754823;80;21330;-86
2022/06/03 03:02:23;;;;;;;13.13;6.97;;;;;;;6.70;92.89;98751.03;1747691;80;21079;-83
2022/06/03 03:05:36;;;;;;;11.40;7.28;;;;;;;6.70;92.70;98756.42;1716635;81;21525;-81
2022/06/03 03:08:29;;;;;;;8.95;6.05;;;;;;;6.67;93.51;98750.17;1774519;79;20954;-87
2022/06/03 03:11:15;;;;;;;8.73;6.30;;;;;;;6.60;93.86;98751.64;1752209;80;21424;-83
2022/06/03 03:14:17;;;;;;;11.05;6.97;;;;;;;6.54;93.88;98753.92;1778915;79;21070;-84
2022/06/03 03:17:18;;;;;;;14.43;7.33;;;;;;;6.46;94.30;98752.40;1751906;80;21074;-87
2022/06/03 03:20:14;;;;;;;9.55;7.62;;;;;;;6.46;94.35;98755.62;1752248;80;21093;-86
2022/06/03 03:23:17;;;;;;;12.25;7.50;;;;;;;6.45;94.46;98760.19;1770966;80;21498;-83
2022/06/03 03:26:16;;;;;;;8.80;6.85;;;;;;;6.46;94.43;98750.23;1772868;80;21043;-83
2022/06/03 03:29:04;;;;;;;12.93;7.20;;;;;;;6.51;94.11;98755.75;1779147;80;21860;-83
2022/06/03 03:31:56;;;;;;;10.63;7.47;;;;;;;6.60;95.22;98755.67;1756876;80;21012;-86
2022/06/03 03:34:57;;;;;;;9.73;6.85;;;;;;;6.76;94.77;98760.88;1740977;80;20996;-84
2022/06/03 03:37:57;;;;;;;7.75;6.08;;;;;;;6.93;93.75;98759.08;1762295;80;21380;-84
2022/06/03 03:41:02;;;;;;;7.50;5.58;;;;;;;7.10;93.86;98755.64;1761657;80;21013;-86
2022/06/03 03:43:54;;;;;;;8.30;6.10;;;;;;;7.24;93.79;98753.75;1777309;80;21101;-82
2022/06/03 03:47:00;;;;;;;9.78;6.83;;;;;;;7.36;92.61;98757.77;1781674;80;21079;-83
2022/06/03 03:49:35;;;;;;;11.30;7.12;;;;;;;7.51;92.09;98761.26;1779918;80;21476;-86
2022/06/03 03:52:15;;;;;;;8.53;6.28;;;;;;;7.61;92.24;98762.28;1766158;80;21032;-86
2022/06/03 03:55:02;;;;;;;7.75;5.75;;;;;;;7.76;91.89;98762.25;1778097;80;20992;-86
2022/06/03 03:57:57;;;;;;;10.30;7.20;;;;;;;7.87;91.57;98765.43;1758659;79;21145;-86
2022/06/03 04:00:46;;;;;;;10.88;6.62;;;;;;;8.00;91.49;98758.34;1779182;80;21485;-86
2022/06/03 04:03:31;;;;;;;11.03;7.35;;;;;;;8.12;91.30;98762.34;1766703;81;21033;-86
2022/06/03 04:06:17;;;;;;;11.03;6.40;;;;;;;8.25;91.39;98771.44;1752309;80;21056;-85
2022/06/03 04:09:15;;;;;;;8.40;6.85;;;;;;;8.42;90.83;98768.22;1747518;82;20997;-83
2022/06/03 04:11:51;;;;;;;;;;;;;;;8.64;90.27;98774.22;1731399;80;21945;-83
2022/06/03 04:14:53;;;;;;;11.33;7.03;;;;;;;8.81;90.36;98767.43;1756253;80;20573;-83
2022/06/03 04:18:01;;;;;;;13.88;5.75;;;;;;;9.01;89.97;98763.09;1779146;79;20988;-83
2022/06/03 04:21:00;;;;;;;9.00;5.05;;;;;;;9.15;88.90;98766.78;1779363;80;21021;-83
2022/06/03 04:24:06;;;;;;;8.13;5.78;;;;;;;9.30;88.53;98768.29;1778451;79;20977;-83
2022/06/03 04:27:03;;;;;;;9.73;7.35;;;;;;;9.50;88.33;98763.66;1765009;80;21926;-87
2022/06/03 04:29:53;;;;;;;13.35;8.33;;;;;;;9.68;88.29;98763.30;1779235;80;21100;-83
2022/06/03 04:32:30;;;;;;;11.12;8.60;;;;;;;9.89;87.97;98763.77;1758899;80;21043;-87
2022/06/03 04:35:42;;;;;;;12.40;8.75;;;;;;;10.11;87.41;98770.46;1758838;80;21483;-83
2022/06/03 04:38:49;;;;;;;10.45;7.72;;;;;;;10.32;87.16;98772.81;1771360;80;21044;-83
2022/06/03 04:41:44;;;;;;;16.00;9.13;;;;;;;10.64;85.36;98770.59;1778083;80;21343;-84
2022/06/03 04:44:31;;;;;;;9.90;8.00;;;;;;;10.64;85.36;98770.59;1775236;80;21461;-83
2022/06/03 04:47:26;;;;;;;14.58;8.95;;;;;;;10.73;84.65;98768.48;1774840;80;21252;-86
2022/06/03 04:50:23;;;;;;;11.70;8.98;;;;;;;10.76;84.32;98773.91;1771264;80;21460;-86
2022/06/03 04:53:18;;;;;;;13.85;9.90;;;;;;;10.96;84.09;98775.39;1771825;81;20998;-83
2022/06/03 04:56:41;;;;;;;11.12;7.85;;;;;;;11.26;84.46;98773.88;1769947;80;21072;-87
2022/06/03 04:59:31;;;;;;;12.03;8.25;;;;;;;11.51;82.89;98765.82;1769214;80;21016;-87
2022/06/03 05:02:22;;;;;;;17.12;10.63;;;;;;;11.49;82.05;98769.35;1778597;79;21045;-86
2022/06/03 05:05:03;;;;;;;12.50;8.63;;;;;;;11.59;81.10;98771.27;1775377;80;20982;-87
2022/06/03 05:08:02;;;;;;;25.12;9.65;;;;;;;11.64;81.53;98767.77;1772968;80;21131;-86
2022/06/03 05:10:59;;;;;;;10.53;7.53;;;;;;;11.89;81.84;98774.63;1778244;80;21145;-84
2022/06/03 05:13:56;;;;;;;10.13;7.60;;;;;;;12.07;81.35;98779.53;1777459;80;21060;-87
2022/06/03 05:16:53;;;;;;;12.95;7.33;;;;;;;12.32;80.21;98783.34;1724480;82;21058;-86
2022/06/03 05:19:54;;;;;;;10.65;7.45;;;;;;;12.40;79.17;98783.61;1762031;80;21029;-84
2022/06/03 05:23:04;;;;;;;9.43;7.40;;;;;;;12.55;80.12;98777.33;1774341;80;21460;-87
2022/06/03 05:25:39;;;;;;;10.32;7.15;;;;;;;12.87;80.16;98775.64;1725111;80;21305;-87
2022/06/03 05:28:33;;;;;;;9.70;7.28;;;;;;;13.18;79.40;98771.47;1772854;80;20992;-86
2022/06/03 05:31:21;;;;;;;13.60;7.20;;;;;;;13.31;78.31;98768.70;1757571;80;21038;-87
2022/06/03 05:34:26;;;;;;;9.83;7.87;;;;;;;13.51;77.54;98778.16;1744458;80;21029;-84
2022/06/03 05:37:22;;;;;;;13.32;7.35;;;;;;;13.68;78.01;98776.44;1767129;80;21057;-81
2022/06/03 05:39:56;;;;;;;12.60;7.05;;;;;;;13.89;76.67;98772.47;1770841;80;21082;-86
2022/06/03 05:43:07;;;;;;;11.48;6.97;;;;;;;14.10;76.10;98771.24;1783613;78;21434;-87
2022/06/03 05:46:09;;;;;;;10.72;7.53;;;;;;;14.25;75.47;98767.55;1776174;80;21040;-87
2022/06/03 05:49:14;;;;;;;12.35;5.95;;;;;;;14.42;75.17;98763.05;1786765;80;20991;-84
2022/06/03 05:51:52;;;;;;;8.80;6.78;;;;;;;14.59;74.58;98759.92;1768387;79;21523;-87
2022/06/03 05:54:26;;;;;;;9.90;6.67;;;;;;;14.77;74.00;98762.47;1767169;80;21210;-87
2022/06/03 05:57:26;;;;;;;6.37;5.65;;;;;;;14.94;74.70;98754.64;1787565;80;21245;-84
2022/06/03 05:59:58;;;;;;;9.85;6.47;;;;;;;15.10;73.08;98753.92;1780411;80;21021;-84
2022/06/03 06:03:03;;;;;;;9.45;7.15;;;;;;;15.20;73.51;98749.69;1783900;78;21004;-87
2022/06/03 06:05:52;;;;;;;11.57;6.60;;;;;;;15.47;74.20;98750.46;1787081;80;21020;-85
2022/06/03 06:08:24;;;;;;;10.00;5.70;;;;;;;15.60;70.70;98751.08;1767875;78;21116;-85
2022/06/03 06:11:17;;;;;;;10.75;5.42;;;;;;;15.82;71.46;98751.91;1783830;79;21047;-84
2022/06/03 06:14:11;;;;;;;6.85;4.95;;;;;;;16.00;69.29;98746.16;1780106;79;21424;-85
2022/06/03 06:16:43;;;;;;;6.50;4.95;;;;;;;16.16;68.69;98752.20;1769115;78;21008;-87
2022/06/03 06:19:44;;;;;;;12.18;5.62;;;;;;;16.25;68.08;98749.05;1780933;79;20994;-84
2022/06/03 06:22:30;;;;;;;9.20;7.12;;;;;;;16.48;69.55;98747.27;1783952;80;21786;-84
2022/06/03 06:25:14;;;;;;;9.63;6.58;;;;;;;16.67;68.72;98739.82;1760641;79;21103;-84
2022/06/03 06:28:01;;;;;;;7.58;6.30;;;;;;;16.88;68.47;98742.45;1787744;79;20992;-84
2022/06/03 06:31:00;;;;;;;8.15;5.47;;;;;;;16.85;67.20;98739.52;1785680;80;21092;-84
2022/06/03 06:34:24;;;;;;;9.60;6.08;;;;;;;16.98;67.07;98735.14;1784803;78;21511;-84
2022/06/03 06:37:12;;;;;;;9.40;5.65;;;;;;;17.23;67.26;98733.26;1784759;78;21256;-84
2022/06/03 06:40:07;;;;;;;6.03;4.62;;;;;;;17.47;66.55;98728.36;1782368;79;20992;-84
2022/06/03 06:42:56;;;;;;;5.60;4.62;;;;;;;17.68;65.59;98735.55;1785082;79;21170;-84
2022/06/03 06:45:31;;;;;;;6.83;4.75;;;;;;;17.89;66.58;98733.20;1747861;78;20982;-84
2022/06/03 06:48:20;;;;;;;8.63;4.60;;;;;;;18.16;65.00;98739.12;1778697;79;21575;-88
2022/06/03 06:50:56;;;;;;;12.07;5.53;;;;;;;18.29;65.42;98729.22;1781263;79;21178;-89
2022/06/03 06:53:47;;;;;;;9.08;6.15;;;;;;;18.57;64.86;98729.86;1786144;78;21044;-84
2022/06/03 06:56:33;;;;;;;7.10;4.70;;;;;;;18.73;64.07;98722.06;1779767;79;22643;-84
2022/06/03 06:59:06;;;;;;;7.85;4.87;;;;;;;19.00;63.92;98716.92;1780322;78;21931;-88
2022/06/03 07:01:39;;;;;;;9.63;5.15;;;;;;;19.19;61.60;98718.83;1760326;79;21404;-87
2022/06/03 07:04:12;;;;;;;5.97;4.95;;;;;;;19.34;60.93;98723.88;1757592;80;21108;-88
2022/06/03 07:06:44;;;;;;;4.28;3.72;;;;;;;19.48;61.54;98712.73;1785242;78;21048;-88
2022/06/03 07:09:15;;;;;;;10.60;4.90;;;;;;;19.71;60.35;98717.56;1786061;79;20957;-88
2022/06/03 07:12:10;;;;;;;6.37;4.40;;;;;;;19.93;61.67;98711.11;1783361;79;21060;-89
2022/06/03 07:14:56;;;;;;;5.90;3.90;;;;;;;20.27;61.67;98711.08;1784667;78;20985;-88
2022/06/03 07:20:50;;;;;;;5.22;3.50;;;;;;;20.87;55.59;98699.66;1772943;80;21131;-89
2022/06/03 07:23:30;;;;;;;3.67;3.22;;;;;;;20.87;56.84;98696.91;1770930;79;21172;-89
2022/06/03 07:26:04;;;;;;;7.17;3.72;;;;;;;21.13;57.11;98696.20;1761090;80;21107;-89
2022/06/03 07:28:53;;;;;;;4.00;3.50;;;;;;;21.34;57.78;98692.70;1784423;78;21135;-87
2022/06/03 07:31:47;;;;;;;5.65;3.27;;;;;;;21.61;55.28;98692.17;1782927;78;22073;-84
2022/06/03 07:34:29;;;;;;;4.05;3.50;;;;;;;22.12;54.83;98681.86;1780954;78;21079;-85
2022/06/03 07:37:04;;;;;;;4.08;3.10;;;;;;;22.79;53.21;98679.83;1782852;79;21361;-85
2022/06/03 07:40:09;;;;;;;5.90;2.52;;;;;;;23.15;51.76;98676.86;1745513;79;21024;-87
2022/06/03 07:42:43;;;;;;;4.95;2.62;;;;;;;23.65;49.14;98675.08;1774800;80;21079;-89
2022/06/03 07:45:40;;;;;;;4.33;2.70;;;;;;;24.09;42.11;98673.17;1784041;79;21013;-89
2022/06/03 07:48:11;;;;;;;4.78;2.20;;;;;;;24.42;44.00;98672.92;1778050;78;21058;-90
2022/06/03 07:51:09;;;;;;;3.30;1.77;;;;;;;24.42;40.99;98673.50;1755340;80;21043;-90
2022/06/03 07:53:52;;;;;;;7.50;2.00;;;;;;;24.67;43.93;98667.23;1779728;79;21116;-90
2022/06/03 07:56:21;;;;;;;2.52;1.98;;;;;;;25.29;41.21;98655.31;1775838;79;21060;-90
2022/06/03 07:58:51;;;;;;;4.42;2.22;;;;;;;25.57;39.82;98651.55;1760577;79;21133;-90
2022/06/03 08:01:26;;;;;;;5.10;1.95;;;;;;;25.57;36.75;98653.73;1786392;79;21009;-90
2022/06/03 08:03:55;;;;;;;3.02;1.98;;;;;;;26.32;36.77;98645.55;1769638;78;21100;-91
2022/06/03 08:10:56;;;;;;;2.92;2.00;;;;;;;26.54;36.10;98648.72;1770954;79;21071;-91
2022/06/03 08:11:44;;;;;;;7.55;2.00;;;;;;;26.96;34.65;98647.25;1782692;78;21042;-91
2022/06/03 08:14:10;;;;;;;2.58;2.10;;;;;;;27.04;32.16;98646.21;1783374;78;21035;-91
2022/06/03 08:16:41;;;;;;;2.62;1.98;;;;;;;27.13;31.40;98643.97;1784282;78;21374;-90
2022/06/03 08:19:14;;;;;;;3.22;1.80;;;;;;;27.38;31.16;98631.81;1779196;79;21125;-88
2022/06/03 08:21:52;;;;;;;2.52;1.92;;;;;;;27.21;31.49;98638.72;1780952;79;21062;-89
2022/06/03 08:24:27;;;;;;;4.25;1.95;;;;;;;27.37;33.24;98634.97;1789626;78;21114;-89
2022/06/03 08:26:57;;;;;;;2.55;1.60;;;;;;;28.23;33.33;98639.03;1764990;79;21444;-88
2022/06/03 08:29:39;;;;;;;5.78;2.12;;;;;;;28.07;30.50;98635.67;1755312;80;21056;-88
2022/06/03 08:32:10;;;;;;;3.95;2.95;;;;;;;28.90;31.29;98636.72;1776346;79;21060;-90
2022/06/03 08:34:43;;;;;;;2.08;1.57;;;;;;;29.28;29.43;98638.77;1778729;79;21079;-89
2022/06/03 08:37:09;;;;;;;4.60;1.82;;;;;;;29.68;27.83;98635.03;1779643;78;21840;-89
2022/06/03 08:39:35;;;;;;;2.60;1.75;;;;;;;29.83;26.64;98633.10;1798096;79;21072;-90
2022/06/03 08:42:44;;;;;;;2.60;1.82;;;;;;;29.67;28.51;98631.44;1787024;79;20932;-90
2022/06/03 08:45:35;;;;;;;4.80;1.95;;;;;;;29.91;27.15;98631.91;1761921;80;21087;-90
2022/06/03 08:48:14;;;;;;;3.85;1.70;;;;;;;29.56;25.96;98638.14;1769273;78;21429;-89
2022/06/03 08:50:56;;;;;;;5.12;2.25;;;;;;;29.44;26.79;98630.88;1777943;79;21197;-90
2022/06/03 08:53:44;;;;;;;2.60;1.50;;;;;;;30.43;27.12;98626.30;1779727;78;21452;-86
2022/06/03 08:56:18;;;;;;;4.75;1.80;;;;;;;31.40;25.20;98618.68;1778586;78;21579;-86
2022/06/03 08:58:58;;;;;;;4.45;1.77;;;;;;;30.73;26.24;98616.14;1781657;79;21173;-86
2022/06/03 09:01:38;;;;;;;5.40;1.80;;;;;;;30.83;25.64;98612.54;1776883;79;21064;-86
2022/06/03 09:04:15;;;;;;;3.27;1.95;;;;;;;30.71;25.44;98613.55;1776415;79;21158;-86
2022/06/03 09:07:25;;;;;;;3.05;1.90;;;;;;;31.11;25.83;98619.33;1773514;79;21037;-86
2022/06/03 09:10:13;;;;;;;3.15;1.45;;;;;;;31.66;26.32;98616.78;1779922;78;21014;-86
2022/06/03 09:12:53;;;;;;;2.52;1.55;;;;;;;33.12;24.44;98609.45;1785026;78;21139;-86
2022/06/03 09:15:22;;;;;;;5.25;1.98;;;;;;;33.10;22.24;98609.87;1774167;78;21576;-86
2022/06/03 09:18:16;;;;;;;4.30;1.75;;;;;;;33.78;22.19;98600.70;1783312;79;21477;-86
2022/06/03 09:20:47;;;;;;;2.02;1.25;;;;;;;32.55;21.93;98600.89;1782937;79;21122;-86
2022/06/03 09:23:16;;;;;;;2.00;1.35;;;;;;;32.97;22.70;98598.16;1791581;78;21040;-86
2022/06/03 09:25:50;;;;;;;3.55;1.52;;;;;;;31.95;22.50;98605.47;1794321;78;21088;-87
2022/06/03 09:28:26;;;;;;;3.45;1.60;;;;;;;32.40;22.99;98603.64;1784856;78;21090;-86
2022/06/03 09:30:52;;;;;;;5.47;1.62;;;;;;;30.80;22.16;98599.37;1775808;79;21150;-86
2022/06/03 09:33:20;;;;;;;6.30;1.80;;;;;;;31.87;23.26;98601.11;1786713;78;20878;-87
2022/06/03 09:35:48;;;;;;;2.27;1.50;;;;;;;33.65;21.91;98598.25;1780628;79;21040;-87
2022/06/03 09:38:13;;;;;;;4.05;1.40;;;;;;;33.17;22.01;98597.78;1785725;79;21110;-87
2022/06/03 09:40:42;;;;;;;2.40;1.35;;;;;;;31.40;22.63;98606.87;1752426;79;20941;-86
2022/06/03 09:43:23;;;;;;;3.05;1.75;;;;;;;32.43;22.27;98599.20;1780069;78;21322;-87
2022/06/03 09:45:51;;;;;;;3.05;1.75;;;;;;;32.28;21.49;98597.86;1774327;79;21031;-86
2022/06/03 09:48:20;;;;;;;5.87;2.77;;;;;;;33.96;20.95;98588.45;1777083;78;21125;-87
2022/06/03 09:50:48;;;;;;;3.30;2.12;;;;;;;34.40;20.21;98591.02;1784793;79;21071;-87
2022/06/03 09:53:18;;;;;;;3.90;2.40;;;;;;;35.48;19.52;98592.80;1764345;79;21507;-86
2022/06/03 09:55:52;;;;;;;3.80;2.17;;;;;;;34.19;19.45;98592.74;1750788;80;21125;-87
2022/06/03 09:58:21;;;;;;;4.60;1.75;;;;;;;34.98;18.93;98581.84;1774171;80;21127;-87
2022/06/03 10:00:51;;;;;;;3.95;1.47;;;;;;;35.88;19.90;98578.06;1778359;79;21523;-87
2022/06/03 10:03:17;;;;;;;5.92;2.37;;;;;;;36.82;19.10;98574.64;1775870;79;21048;-87
2022/06/03 10:05:47;;;;;;;3.10;2.15;;;;;;;35.97;18.61;98574.03;1776296;80;21052;-87
2022/06/03 10:08:13;;;;;;;2.87;2.15;;;;;;;36.64;19.54;98572.28;1776795;78;21619;-87
2022/06/03 10:13:23;;;;;;;3.67;1.90;;;;;;;36.57;19.19;98578.09;1771426;79;21017;-87
2022/06/03 10:15:56;;;;;;;1.80;1.40;;;;;;;37.02;19.25;98580.22;1773989;79;20933;-87
2022/06/03 10:18:38;;;;;;;3.08;1.77;;;;;;;37.22;18.86;98583.07;1760515;79;21486;-87
2022/06/03 10:21:15;;;;;;;2.90;2.30;;;;;;;38.09;18.18;98578.74;1778480;79;21080;-87
2022/06/03 10:23:44;;;;;;;4.55;1.77;;;;;;;38.02;18.38;98576.76;1780944;79;21068;-87
2022/06/03 10:26:21;;;;;;;3.42;1.70;;;;;;;38.90;16.39;98568.87;1768582;78;21084;-87
2022/06/03 10:28:49;;;;;;;7.58;3.25;;;;;;;38.50;16.05;98567.16;1770913;79;21029;-87
2022/06/03 10:31:18;;;;;;;3.83;2.47;;;;;;;36.32;18.41;98565.98;1769664;79;21037;-86
2022/06/03 10:34:11;;;;;;;1.90;1.45;;;;;;;37.16;18.49;98563.66;1776425;79;21259;-87
2022/06/03 10:36:45;;;;;;;2.70;1.50;;;;;;;37.27;18.27;98556.32;1773924;79;20985;-87
2022/06/03 10:39:17;;;;;;;1.95;1.40;;;;;;;37.79;18.34;98563.74;1765697;79;21075;-87
2022/06/03 10:41:48;;;;;;;2.50;1.40;;;;;;;38.30;17.62;98563.80;1760008;80;21100;-87
2022/06/03 10:44:22;;;;;;;5.10;1.20;;;;;;;36.75;18.24;98557.88;1790997;79;21087;-87
2022/06/03 10:46:55;;;;;;;2.20;1.40;;;;;;;37.32;17.80;98552.17;1768746;78;21677;-87
2022/06/03 10:49:22;;;;;;;4.58;1.20;;;;;;;37.81;17.71;98552.15;1767403;78;21397;-87
2022/06/03 11:02:49;;;;;;;2.90;1.50;;;;;;;36.83;16.76;98534.67;1751275;80;21463;-87
2022/06/03 11:05:28;;;;;;;2.75;1.10;;;;;;;37.81;17.09;98535.19;1725164;81;21490;-87
2022/06/03 11:08:08;;;;;;;1.75;1.35;;;;;;;35.47;17.95;98536.27;1687194;82;21281;-87
2022/06/03 11:10:52;;;;;;;3.30;1.35;;;;;;;35.92;18.48;98530.87;1758456;80;21005;-86
2022/06/03 11:13:32;;;;;;;2.08;1.27;;;;;;;36.22;17.77;98526.92;1756201;80;21110;-87
2022/06/03 11:16:21;;;;;;;2.52;1.62;;;;;;;35.67;18.10;98532.02;1755971;78;20970;-87
2022/06/03 11:18:46;;;;;;;3.25;1.50;;;;;;;36.01;17.74;98525.42;1737662;80;21271;-87
2022/06/03 11:21:28;;;;;;;3.92;1.42;;;;;;;35.29;17.95;98518.27;1769987;79;20900;-87
2022/06/03 11:23:57;;;;;;;2.65;1.10;;;;;;;37.36;16.90;98525.41;1758920;79;21473;-87
2022/06/03 11:26:27;;;;;;;5.37;1.40;;;;;;;36.15;17.33;98516.63;1771901;80;21107;-87
2022/06/03 11:29:00;;;;;;;1.95;1.20;;;;;;;36.93;16.75;98523.77;1763766;79;21079;-87
2022/06/03 11:31:35;;;;;;;2.25;1.22;;;;;;;37.12;15.33;98520.61;1769710;79;21079;-87
2022/06/03 11:34:09;;;;;;;3.05;1.30;;;;;;;35.96;15.78;98514.66;1771945;79;21083;-87
2022/06/03 11:36:42;;;;;;;4.42;1.72;;;;;;;38.04;15.84;98507.20;1761330;79;21060;-87
2022/06/03 11:39:37;;;;;;;4.90;1.80;;;;;;;39.54;13.46;98506.87;1768863;79;22325;-87
2022/06/03 11:42:28;;;;;;;4.37;1.82;;;;;;;38.28;14.99;98504.81;1723091;80;21087;-87
2022/06/03 11:45:09;;;;;;;2.47;1.30;;;;;;;36.56;16.95;98493.27;1759276;80;21172;-87
2022/06/03 11:47:40;;;;;;;7.83;1.77;;;;;;;36.71;17.17;98507.97;1756315;80;21076;-87
2022/06/03 11:50:08;;;;;;;1.98;1.30;;;;;;;37.90;15.90;98506.23;1769003;80;21013;-87
2022/06/03 11:52:33;;;;;;;4.28;1.50;;;;;;;38.77;15.44;98497.31;1764149;80;26030;-87
2022/06/03 11:54:59;;;;;;;2.50;1.60;;;;;;;38.92;14.43;98489.11;1771984;79;20850;-87
2022/06/03 11:57:26;;;;;;;3.47;1.57;;;;;;;38.65;15.32;98489.63;1775076;80;21024;-87
2022/06/03 12:00:03;;;;;;;3.95;2.42;;;;;;;39.30;14.90;98485.30;1774426;79;21013;-87
2022/06/03 12:02:42;;;;;;;1.70;1.40;;;;;;;38.54;14.61;98481.52;1739382;78;22138;-87
2022/06/03 12:05:13;;;;;;;1.95;1.20;;;;;;;39.60;14.23;98474.66;1768821;79;21283;-87
2022/06/03 12:08:05;;;;;;;4.25;1.30;;;;;;;39.62;13.51;98469.30;1751670;79;21127;-87
2022/06/03 12:10:46;;;;;;;2.62;1.40;;;;;;;38.34;15.22;98464.80;1773145;79;21485;-90
2022/06/03 12:13:26;;;;;;;2.65;1.45;;;;;;;37.89;16.32;98466.48;1763584;79;21060;-91
2022/06/03 12:16:04;;;;;;;6.95;1.72;;;;;;;36.61;17.15;98457.47;1757963;80;21068;-91
2022/06/03 12:18:38;;;;;;;2.42;1.35;;;;;;;37.59;16.31;98459.93;1759599;78;21838;-91
2022/06/03 12:21:13;;;;;;;3.45;1.37;;;;;;;38.34;16.56;98453.48;1775462;79;21069;-91
2022/06/03 12:23:53;;;;;;;2.00;1.47;;;;;;;37.65;16.33;98455.30;1772748;79;21377;-91
2022/06/03 12:26:24;;;;;;;3.47;2.12;;;;;;;38.86;16.38;98442.80;1769739;79;21042;-91
2022/06/03 12:28:52;;;;;;;1.75;1.50;;;;;;;38.72;15.90;98441.28;1774968;79;21410;-87
2022/06/03 12:31:23;;;;;;;1.60;1.35;;;;;;;37.88;15.79;98439.45;1739893;80;21100;-87
2022/06/03 12:34:04;;;;;;;1.92;1.20;;;;;;;37.43;17.02;98435.38;1766562;79;21004;-87
2022/06/03 12:37:00;;;;;;;2.98;1.27;;;;;;;38.29;15.91;98427.20;1774314;79;21091;-87
2022/06/03 12:39:53;;;;;;;1.65;1.12;;;;;;;39.41;15.35;98423.36;1768197;79;21032;-87
2022/06/03 12:42:31;;;;;;;1.98;1.20;;;;;;;37.69;16.08;98424.28;1753312;79;21063;-89
2022/06/03 12:45:05;;;;;;;2.45;1.20;;;;;;;38.37;16.43;98417.22;1774119;79;21206;-90
2022/06/03 12:47:37;;;;;;;3.58;1.47;;;;;;;37.25;16.29;98418.32;1763814;80;20979;-91
2022/06/03 12:50:14;;;;;;;3.62;1.70;;;;;;;36.44;16.65;98409.53;1768436;80;21127;-90
2022/06/03 12:52:41;;;;;;;;;;;;;;;36.68;17.04;98419.17;1769796;79;21402;-90
2022/06/03 12:55:14;;;;;;;;;;;;;;;37.33;15.71;98408.25;1768507;80;20191;-90
2022/06/03 12:57:51;;;;;;;5.05;1.57;;;;;;;37.43;16.91;98415.60;1772615;79;21071;-89
2022/06/03 13:00:24;;;;;;;3.37;1.22;;;;;;;36.85;17.60;98402.38;1770929;80;21107;-90
2022/06/03 13:03:00;;;;;;;3.50;1.72;;;;;;;38.18;16.58;98400.47;1772979;79;21079;-90
2022/06/03 13:05:53;;;;;;;3.43;1.40;;;;;;;37.03;17.46;98394.80;1776017;79;21080;-87
2022/06/03 13:09:34;;;;;;;2.27;1.20;;;;;;;35.77;17.40;98395.69;1767450;80;21025;-87
2022/06/03 13:11:06;;;;;;;3.77;1.47;;;;;;;37.03;17.30;98385.55;1758871;80;21070;-87
2022/06/03 13:13:54;;;;;;;2.90;1.47;;;;;;;37.01;17.29;98384.58;1775570;79;21150;-88
2022/06/03 13:16:24;;;;;;;2.72;1.40;;;;;;;36.82;17.77;98392.55;1743500;80;21159;-88
2022/06/03 13:19:01;;;;;;;2.95;1.85;;;;;;;35.16;18.83;98387.83;1773056;80;21021;-87
2022/06/03 13:21:30;;;;;;;5.53;2.70;;;;;;;34.77;19.02;98379.55;1740698;80;22138;-87